createdAt,value
2022-10-18T00:01:25.654Z,780.3
2022-10-18T00:03:09.349Z,777.4
2022-10-18T00:04:53.067Z,774.8
2022-10-18T00:06:36.769Z,771.7
2022-10-18T00:08:20.459Z,772.2
2022-10-18T00:10:04.170Z,771.7
2022-10-18T00:11:47.865Z,770.6
2022-10-18T00:13:31.567Z,771.8
2022-10-18T00:15:15.274Z,774.2
2022-10-18T00:16:58.970Z,773.5
2022-10-18T00:18:42.683Z,772
2022-10-18T00:20:26.385Z,774
2022-10-18T00:22:10.085Z,774.7
2022-10-18T00:23:53.793Z,776.3
2022-10-18T00:25:37.481Z,779.5
2022-10-18T00:27:21.193Z,776.7
2022-10-18T00:29:04.891Z,774.2
2022-10-18T00:30:48.593Z,773.8
2022-10-18T00:32:32.294Z,774.6
2022-10-18T00:34:15.994Z,774.5
2022-10-18T00:35:59.701Z,774
2022-10-18T00:37:43.405Z,772.7
2022-10-18T00:39:27.100Z,774.1
2022-10-18T00:41:10.798Z,774.8
2022-10-18T00:42:54.511Z,775.3
2022-10-18T00:44:38.206Z,773.6
2022-10-18T00:46:21.917Z,775.8
2022-10-18T00:48:05.606Z,775
2022-10-18T00:49:49.338Z,773.8
2022-10-18T00:51:33.040Z,773.1
2022-10-18T00:53:16.717Z,776.2
2022-10-18T00:55:00.422Z,775.4
2022-10-18T00:56:44.122Z,779
2022-10-18T00:58:27.838Z,777.9
2022-10-18T01:00:11.526Z,779.4
2022-10-18T01:01:55.224Z,780
2022-10-18T01:03:38.940Z,779.7
2022-10-18T01:05:22.635Z,777.3
2022-10-18T01:07:06.331Z,775.4
2022-10-18T01:08:50.043Z,771.4
2022-10-18T01:10:33.742Z,774.4
2022-10-18T01:12:17.445Z,772.6
2022-10-18T01:14:01.145Z,771.8
2022-10-18T01:15:44.853Z,775.3
2022-10-18T01:17:28.558Z,775.3
2022-10-18T01:19:12.263Z,776.5
2022-10-18T01:20:55.952Z,778.5
2022-10-18T01:22:39.657Z,778.9
2022-10-18T01:24:23.361Z,780.4
2022-10-18T01:26:07.058Z,781.1
2022-10-18T01:27:50.771Z,784.8
2022-10-18T01:29:34.466Z,785.1
2022-10-18T01:31:18.170Z,783
2022-10-18T01:33:01.869Z,782.9
2022-10-18T01:34:45.585Z,782.2
2022-10-18T01:36:29.278Z,781
2022-10-18T01:38:12.976Z,781.7
2022-10-18T01:39:56.681Z,783.3
2022-10-18T01:41:40.403Z,785.7
2022-10-18T01:43:24.100Z,785
2022-10-18T01:45:07.797Z,784.2
2022-10-18T01:46:51.499Z,785.8
2022-10-18T01:48:35.197Z,787.7
2022-10-18T01:50:18.898Z,791
2022-10-18T01:52:02.601Z,793.4
2022-10-18T01:53:46.308Z,792.2
2022-10-18T01:55:29.998Z,792.7
2022-10-18T01:57:13.704Z,792.9
2022-10-18T01:58:57.409Z,790.9
2022-10-18T02:00:41.106Z,790.6
2022-10-18T02:02:24.811Z,793.6
2022-10-18T02:04:08.519Z,791
2022-10-18T02:07:35.915Z,793.1
2022-10-18T02:09:19.628Z,798.4
2022-10-18T02:11:03.333Z,800.7
2022-10-18T02:12:47.027Z,798.3
2022-10-18T02:14:30.730Z,802.2
2022-10-18T02:16:14.430Z,805.9
2022-10-18T02:17:58.139Z,805.3
2022-10-18T02:19:41.859Z,807.3
2022-10-18T02:21:25.541Z,808.5
2022-10-18T02:23:09.239Z,811.8
2022-10-18T02:24:52.954Z,811.3
2022-10-18T02:26:36.655Z,807.5
2022-10-18T02:28:20.366Z,803.3
2022-10-18T02:30:04.062Z,802
2022-10-18T02:31:47.760Z,801
2022-10-18T02:33:31.460Z,800.8
2022-10-18T02:35:15.161Z,800.7
2022-10-18T02:36:58.868Z,801.3
2022-10-18T02:38:42.569Z,803.3
2022-10-18T02:40:26.273Z,808.9
2022-10-18T02:42:09.967Z,811.4
2022-10-18T02:43:53.674Z,813.2
2022-10-18T02:45:37.381Z,815.1
2022-10-18T02:47:21.078Z,817.5
2022-10-18T02:49:04.776Z,816.5
2022-10-18T02:50:48.483Z,818
2022-10-18T02:52:32.182Z,816.5
2022-10-18T02:54:15.888Z,814.8
2022-10-18T02:55:59.584Z,817.5
2022-10-18T02:57:43.292Z,819.1
2022-10-18T02:59:26.996Z,820.2
2022-10-18T03:01:10.689Z,816.8
2022-10-18T03:02:54.389Z,815.5
2022-10-18T03:04:38.094Z,814
2022-10-18T03:06:21.801Z,810.8
2022-10-18T03:08:05.514Z,809.1
2022-10-18T03:09:49.204Z,805.9
2022-10-18T03:11:32.909Z,807.6
2022-10-18T03:13:16.609Z,810.4
2022-10-18T03:15:00.304Z,808.4
2022-10-18T03:16:44.012Z,809.1
2022-10-18T03:18:27.718Z,811.6
2022-10-18T03:20:11.420Z,811.8
2022-10-18T03:21:55.126Z,811.8
2022-10-18T03:23:38.819Z,811.8
2022-10-18T03:25:22.530Z,815.1
2022-10-18T03:27:06.236Z,816.3
2022-10-18T03:28:49.925Z,817.3
2022-10-18T03:30:33.636Z,818.1
2022-10-18T03:32:17.341Z,821.7
2022-10-18T03:34:01.030Z,822
2022-10-18T03:35:44.741Z,821.5
2022-10-18T03:37:28.445Z,821.7
2022-10-18T03:39:12.156Z,821.9
2022-10-18T03:40:55.851Z,820.7
2022-10-18T03:42:39.547Z,823.1
2022-10-18T03:44:23.248Z,821.7
2022-10-18T03:46:06.957Z,824.4
2022-10-18T03:47:50.647Z,823.3
2022-10-18T03:49:34.371Z,822.4
2022-10-18T03:51:18.056Z,825.1
2022-10-18T03:53:01.761Z,828.6
2022-10-18T03:54:45.470Z,830.2
2022-10-18T03:56:29.164Z,829.2
2022-10-18T03:58:12.872Z,828
2022-10-18T03:59:56.584Z,828.8
2022-10-18T04:01:40.270Z,834.2
2022-10-18T04:03:23.978Z,834.6
2022-10-18T04:05:07.686Z,834.1
2022-10-18T04:06:51.376Z,833.8
2022-10-18T04:08:35.101Z,835.6
2022-10-18T04:10:18.782Z,837.6
2022-10-18T04:13:46.195Z,839.3
2022-10-18T04:15:29.896Z,837
2022-10-18T04:17:13.604Z,833.3
2022-10-18T04:18:57.301Z,831.6
2022-10-18T04:20:41.017Z,830.5
2022-10-18T04:22:24.706Z,831.6
2022-10-18T04:24:08.408Z,830.8
2022-10-18T04:25:52.110Z,834.2
2022-10-18T04:27:35.819Z,837.7
2022-10-18T04:29:19.534Z,841.1
2022-10-18T04:31:03.225Z,842
2022-10-18T04:32:46.946Z,843.8
2022-10-18T04:34:30.637Z,845.2
2022-10-18T04:36:14.322Z,847.3
2022-10-18T04:37:58.029Z,848.4
2022-10-18T04:39:41.727Z,848.2
2022-10-18T04:43:09.132Z,849.7
2022-10-18T04:44:52.833Z,845.2
2022-10-18T04:46:36.548Z,849.1
2022-10-18T04:48:20.244Z,850.6
2022-10-18T04:50:03.947Z,850.6
2022-10-18T04:51:47.658Z,848.1
2022-10-18T04:53:31.367Z,846
2022-10-18T04:55:15.049Z,850.9
2022-10-18T04:56:58.752Z,853.7
2022-10-18T04:58:42.450Z,855.6
2022-10-18T05:00:26.162Z,855.2
2022-10-18T05:02:09.882Z,855.9
2022-10-18T05:03:53.560Z,856.6
2022-10-18T05:05:37.268Z,856.1
2022-10-18T05:07:20.964Z,854.7
2022-10-18T05:09:04.670Z,854.6
2022-10-18T05:10:48.376Z,858.8
2022-10-18T05:12:32.074Z,858.9
2022-10-18T05:14:15.778Z,859.3
2022-10-18T05:15:59.480Z,858.6
2022-10-18T05:17:43.209Z,858.2
2022-10-18T05:19:26.893Z,859.7
2022-10-18T05:21:10.585Z,858
2022-10-18T05:22:54.430Z,860
2022-10-18T05:24:37.997Z,863.1
2022-10-18T05:26:21.696Z,871.8
2022-10-18T05:28:05.418Z,880.8
2022-10-18T05:29:49.122Z,889.4
2022-10-18T05:31:32.801Z,906.8
2022-10-18T05:33:16.510Z,921.5
2022-10-18T05:35:00.233Z,928.9
2022-10-18T05:36:43.922Z,932.5
2022-10-18T05:38:27.717Z,936
2022-10-18T05:40:11.365Z,934.8
2022-10-18T05:41:55.026Z,946.3
2022-10-18T05:43:38.726Z,1057.5
2022-10-18T05:45:22.420Z,1124
2022-10-18T05:47:06.129Z,1101.3
2022-10-18T05:48:49.833Z,1025.2
2022-10-18T05:50:33.535Z,1074.3
2022-10-18T05:52:17.238Z,1149.3
2022-10-18T05:54:00.954Z,1163.7
2022-10-18T05:55:44.643Z,1144
2022-10-18T05:57:28.353Z,1132.5
2022-10-18T05:59:12.049Z,1098.3
2022-10-18T06:00:55.749Z,1073.5
2022-10-18T06:02:39.458Z,1068.5
2022-10-18T06:04:23.152Z,1071.1
2022-10-18T06:06:06.903Z,1077.4
2022-10-18T06:07:50.560Z,1077.6
2022-10-18T06:09:34.276Z,1078.8
2022-10-18T06:11:17.964Z,1083.2
2022-10-18T06:13:01.668Z,1085.7
2022-10-18T06:14:45.372Z,1081.6
2022-10-18T06:16:29.084Z,1074.8
2022-10-18T06:18:12.774Z,1073.1
2022-10-18T06:19:56.480Z,1074
2022-10-18T06:21:40.191Z,1073.8
2022-10-18T06:23:23.878Z,1075.4
2022-10-18T06:25:07.594Z,1074.7
2022-10-18T06:26:51.401Z,1069.3
2022-10-18T06:28:34.986Z,1072.8
2022-10-18T06:30:18.703Z,1074.5
2022-10-18T06:32:02.392Z,1109.2
2022-10-18T06:33:46.098Z,1160.2
2022-10-18T06:35:29.806Z,1260.6
2022-10-18T06:37:13.498Z,1248.5
2022-10-18T06:38:57.204Z,1244.1
2022-10-18T06:40:40.916Z,1245
2022-10-18T06:42:24.603Z,1222.3
2022-10-18T06:44:08.313Z,1203.1
2022-10-18T06:45:52.011Z,1195
2022-10-18T06:47:35.714Z,1186.8
2022-10-18T06:49:19.416Z,1182
2022-10-18T06:51:03.124Z,1181.7
2022-10-18T06:52:46.825Z,1181
2022-10-18T06:54:30.523Z,1177.3
2022-10-18T06:56:14.228Z,1172
2022-10-18T06:57:57.929Z,1169.3
2022-10-18T06:59:41.629Z,1165.8
2022-10-18T07:01:25.333Z,1175.4
2022-10-18T07:03:09.098Z,1220.1
2022-10-18T07:04:52.745Z,1230
2022-10-18T07:06:36.502Z,1180.7
2022-10-18T07:08:20.148Z,1155.5
2022-10-18T07:10:03.855Z,1155.9
2022-10-18T07:11:47.550Z,1154.9
2022-10-18T07:13:31.256Z,1154.3
2022-10-18T07:15:14.995Z,1152.8
2022-10-18T07:16:58.664Z,1146.7
2022-10-18T07:18:42.366Z,1147.8
2022-10-18T07:20:26.075Z,1152.5
2022-10-18T07:22:09.775Z,1150.1
2022-10-18T07:23:53.484Z,1146.7
2022-10-18T07:25:37.178Z,1138.9
2022-10-18T07:27:20.883Z,1136.6
2022-10-18T07:29:04.577Z,1133.2
2022-10-18T07:30:48.296Z,1132.8
2022-10-18T07:32:31.987Z,1131.6
2022-10-18T07:34:15.701Z,1263.1
2022-10-18T07:35:59.387Z,1409.9
2022-10-18T07:37:43.092Z,1454.2
2022-10-18T07:39:26.794Z,1363
2022-10-18T07:41:10.534Z,1283.1
2022-10-18T07:42:54.197Z,1276.6
2022-10-18T07:44:37.896Z,1259.1
2022-10-18T07:46:21.621Z,1260.5
2022-10-18T07:48:05.306Z,1254
2022-10-18T07:49:49.014Z,1254.1
2022-10-18T07:51:32.710Z,1253.6
2022-10-18T07:53:16.410Z,1259
2022-10-18T07:55:00.117Z,1265.9
2022-10-18T07:56:43.842Z,1350.2
2022-10-18T07:58:27.522Z,1369.4
2022-10-18T08:00:11.225Z,1361.9
2022-10-18T08:01:54.922Z,1348.6
2022-10-18T08:03:38.626Z,1337.6
2022-10-18T08:05:22.330Z,1317.7
2022-10-18T08:07:06.027Z,1292.2
2022-10-18T08:08:49.736Z,1288.2
2022-10-18T08:10:33.439Z,1290.2
2022-10-18T08:12:17.139Z,1289.5
2022-10-18T08:14:00.843Z,1282.5
2022-10-18T08:15:44.535Z,1280.1
2022-10-18T08:17:28.244Z,1281.6
2022-10-18T08:19:11.943Z,1282.1
2022-10-18T08:20:55.640Z,1284.6
2022-10-18T08:22:39.346Z,1292
2022-10-18T08:24:23.049Z,1282.4
2022-10-18T08:26:06.755Z,1267.5
2022-10-18T08:27:50.452Z,1258
2022-10-18T08:29:34.171Z,1252.3
2022-10-18T08:31:17.983Z,1245.1
2022-10-18T08:33:01.715Z,1243.8
2022-10-18T08:34:45.378Z,1238.3
2022-10-18T08:36:29.091Z,1229.9
2022-10-18T08:38:12.808Z,1226.1
2022-10-18T08:39:56.537Z,1225
2022-10-18T08:41:40.160Z,1217.6
2022-10-18T08:43:23.775Z,1220.2
2022-10-18T08:45:07.622Z,1219.4
2022-10-18T08:46:51.329Z,1216.5
2022-10-18T08:48:34.888Z,1214.3
2022-10-18T08:50:18.616Z,1212.3
2022-10-18T08:52:02.427Z,1207
2022-10-18T08:53:46.136Z,1209.5
2022-10-18T08:55:29.833Z,1215.3
2022-10-18T08:57:13.540Z,1195.7
2022-10-18T08:58:57.244Z,1179.1
2022-10-18T09:00:40.941Z,1169.8
2022-10-18T09:02:24.669Z,1159.2
2022-10-18T09:04:08.208Z,1160.3
2022-10-18T09:05:52.027Z,1156.2
2022-10-18T09:07:35.761Z,1156.5
2022-10-18T09:09:19.309Z,1159.5
2022-10-18T09:11:03.022Z,1157.3
2022-10-18T09:12:46.782Z,1158.2
2022-10-18T09:14:30.442Z,1157.6
2022-10-18T09:16:14.150Z,1153.8
2022-10-18T09:17:57.857Z,1150.1
2022-10-18T09:19:41.630Z,1149.3
2022-10-18T09:21:25.227Z,1143.2
2022-10-18T09:23:09.022Z,1139.6
2022-10-18T09:24:52.726Z,1132.3
2022-10-18T09:26:36.442Z,1129.5
2022-10-18T09:28:20.081Z,1130
2022-10-18T09:30:03.743Z,1131.5
2022-10-18T09:31:47.473Z,1134.8
2022-10-18T09:33:31.243Z,1132.6
2022-10-18T09:35:14.846Z,1133.1
2022-10-18T09:36:58.559Z,1137
2022-10-18T09:38:42.287Z,1141.5
2022-10-18T09:40:25.961Z,1137.2
2022-10-18T09:42:09.677Z,1144.7
2022-10-18T09:43:53.395Z,1150.9
2022-10-18T09:45:37.150Z,1159.6
2022-10-18T09:47:20.770Z,1162.1
2022-10-18T09:49:04.470Z,1165.6
2022-10-18T09:50:48.172Z,1165.1
2022-10-18T09:52:31.985Z,1165.5
2022-10-18T09:54:15.669Z,1168.1
2022-10-18T09:55:59.286Z,1172.7
2022-10-18T09:57:43.045Z,1174.7
2022-10-18T09:59:26.686Z,1186.8
2022-10-18T10:01:10.390Z,1188.7
2022-10-18T10:02:54.148Z,1189.7
2022-10-18T10:04:37.823Z,1188.5
2022-10-18T10:06:21.495Z,1186.9
2022-10-18T10:08:05.231Z,1181.7
2022-10-18T10:09:48.963Z,1175.9
2022-10-18T10:11:32.601Z,1176.7
2022-10-18T10:13:16.302Z,1181.4
2022-10-18T10:15:00.013Z,1182.6
2022-10-18T10:16:43.701Z,1185.2
2022-10-18T10:18:27.438Z,1178.8
2022-10-18T10:20:11.113Z,1172.6
2022-10-18T10:21:54.803Z,1175.3
2022-10-18T10:23:38.520Z,1176.4
2022-10-18T10:25:22.219Z,1187.8
2022-10-18T10:27:05.941Z,1293.5
2022-10-18T10:28:49.632Z,1316.5
2022-10-18T10:30:33.326Z,1282.8
2022-10-18T10:32:17.021Z,1246.8
2022-10-18T10:34:00.732Z,1242
2022-10-18T10:35:44.452Z,1249
2022-10-18T10:37:28.164Z,1260
2022-10-18T10:39:11.863Z,1270
2022-10-18T10:40:55.563Z,1287
2022-10-18T10:42:39.304Z,1307.9
2022-10-18T10:44:23.015Z,1311.7
2022-10-18T10:46:06.667Z,1315.5
2022-10-18T10:47:50.369Z,1317
2022-10-18T10:49:34.052Z,1321
2022-10-18T10:51:17.809Z,1315.5
2022-10-18T10:53:01.463Z,1313.6
2022-10-18T10:54:45.155Z,1310.1
2022-10-18T10:56:28.884Z,1308
2022-10-18T10:58:12.657Z,1306.1
2022-10-18T10:59:56.265Z,1304
2022-10-18T11:01:39.967Z,1305.5
2022-10-18T11:03:23.679Z,1307.3
2022-10-18T11:05:07.375Z,1308
2022-10-18T11:06:51.110Z,1322.3
2022-10-18T11:08:34.911Z,1331.8
2022-10-18T11:10:18.480Z,1328.8
2022-10-18T11:12:02.187Z,1340.1
2022-10-18T11:13:45.924Z,1345.4
2022-10-18T11:15:29.588Z,1340
2022-10-18T11:17:13.285Z,1339.3
2022-10-18T11:18:56.990Z,1335.4
2022-10-18T11:20:40.694Z,1334.9
2022-10-18T11:22:24.444Z,1336.5
2022-10-18T11:24:08.094Z,1340.2
2022-10-18T11:25:51.798Z,1339
2022-10-18T11:27:35.499Z,1335.6
2022-10-18T11:29:19.212Z,1332.6
2022-10-18T11:31:02.911Z,1329.8
2022-10-18T11:32:46.694Z,1331.7
2022-10-18T11:34:30.314Z,1330.3
2022-10-18T11:36:14.009Z,1326.4
2022-10-18T11:37:57.713Z,1330.3
2022-10-18T11:39:41.423Z,1328.8
2022-10-18T11:41:25.159Z,1329.9
2022-10-18T11:43:08.824Z,1332.9
2022-10-18T11:44:52.567Z,1330.8
2022-10-18T11:46:36.251Z,1327.5
2022-10-18T11:48:19.931Z,1325.9
2022-10-18T11:50:03.671Z,1324.7
2022-10-18T11:51:47.334Z,1320.5
2022-10-18T11:53:31.042Z,1318.5
2022-10-18T11:55:14.739Z,1316.7
2022-10-18T11:56:58.437Z,1319.8
2022-10-18T11:58:42.140Z,1320.6
2022-10-18T12:00:25.846Z,1318.2
2022-10-18T12:02:09.549Z,1317.5
2022-10-18T12:03:53.246Z,1317
2022-10-18T12:05:36.954Z,1311.2
2022-10-18T12:07:20.674Z,1301.4
2022-10-18T12:09:04.354Z,1296.2
2022-10-18T12:10:48.066Z,1292.4
2022-10-18T12:12:31.764Z,1291.1
2022-10-18T12:14:15.474Z,1289.8
2022-10-18T12:15:59.169Z,1285.8
2022-10-18T12:17:42.899Z,1280.6
2022-10-18T12:19:26.573Z,1274.2
2022-10-18T12:21:10.279Z,1270.5
2022-10-18T12:22:53.989Z,1270.5
2022-10-18T12:24:37.676Z,1271.1
2022-10-18T12:26:21.385Z,1271.7
2022-10-18T12:28:05.084Z,1261.6
2022-10-18T12:29:48.787Z,1256.6
2022-10-18T12:31:32.486Z,1251.7
2022-10-18T12:33:16.193Z,1248
2022-10-18T12:34:59.933Z,1245.4
2022-10-18T12:36:43.594Z,1244
2022-10-18T12:38:27.310Z,1242.7
2022-10-18T12:40:10.997Z,1240.9
2022-10-18T12:41:54.716Z,1241.1
2022-10-18T12:43:38.418Z,1237.2
2022-10-18T12:45:22.109Z,1232.7
2022-10-18T12:47:05.816Z,1228.9
2022-10-18T12:48:49.510Z,1228.1
2022-10-18T12:50:33.208Z,1229.1
2022-10-18T12:52:16.913Z,1229.9
2022-10-18T12:54:00.621Z,1231
2022-10-18T12:55:44.346Z,1232.8
2022-10-18T12:57:28.075Z,1233.1
2022-10-18T12:59:11.761Z,1229.9
2022-10-18T13:00:55.487Z,1224.7
2022-10-18T13:02:39.175Z,1217.6
2022-10-18T13:04:22.827Z,1220.4
2022-10-18T13:06:06.534Z,1220.6
2022-10-18T13:07:50.237Z,1219.1
2022-10-18T13:09:33.964Z,1224.4
2022-10-18T13:11:17.643Z,1232.5
2022-10-18T13:13:01.349Z,1231.9
2022-10-18T13:14:45.056Z,1237.7
2022-10-18T13:16:28.768Z,1234.9
2022-10-18T13:18:12.458Z,1231.1
2022-10-18T13:19:56.150Z,1227.2
2022-10-18T13:21:39.865Z,1226.7
2022-10-18T13:23:23.557Z,1224.4
2022-10-18T13:25:07.276Z,1222.1
2022-10-18T13:26:50.991Z,1216.9
2022-10-18T13:28:34.672Z,1217.6
2022-10-18T13:30:18.366Z,1215.1
2022-10-18T13:32:02.081Z,1215.9
2022-10-18T13:33:45.886Z,1215.1
2022-10-18T13:35:29.483Z,1217.7
2022-10-18T13:37:13.175Z,1212.2
2022-10-18T13:38:56.907Z,1208.6
2022-10-18T13:40:40.585Z,1207.6
2022-10-18T13:42:24.285Z,1206.1
2022-10-18T13:44:07.999Z,1205.4
2022-10-18T13:45:51.681Z,1204
2022-10-18T13:47:35.397Z,1202
2022-10-18T13:49:19.099Z,1205.2
2022-10-18T13:51:02.810Z,1205.4
2022-10-18T13:52:46.497Z,1202
2022-10-18T13:54:30.204Z,1202.5
2022-10-18T13:56:13.899Z,1198.5
2022-10-18T13:57:57.606Z,1193.1
2022-10-18T13:59:41.311Z,1189.4
2022-10-18T14:01:25.009Z,1187.6
2022-10-18T14:03:08.716Z,1187.6
2022-10-18T14:04:52.427Z,1184.2
2022-10-18T14:06:36.138Z,1180.6
2022-10-18T14:08:19.933Z,1177.5
2022-10-18T14:10:03.546Z,1178
2022-10-18T14:11:47.260Z,1179.7
2022-10-18T14:13:30.956Z,1179.2
2022-10-18T14:15:14.647Z,1176.6
2022-10-18T14:16:58.340Z,1181.9
2022-10-18T14:18:42.043Z,1183.6
2022-10-18T14:20:25.742Z,1185.8
2022-10-18T14:22:09.477Z,1181.6
2022-10-18T14:23:53.170Z,1183.1
2022-10-18T14:25:36.853Z,1187.2
2022-10-18T14:27:20.551Z,1188.1
2022-10-18T14:29:04.285Z,1185.7
2022-10-18T14:30:47.957Z,1183.9
2022-10-18T14:32:31.702Z,1178.2
2022-10-18T14:34:15.407Z,1176.7
2022-10-18T14:35:59.074Z,1179.1
2022-10-18T14:37:42.809Z,1183.8
2022-10-18T14:39:26.485Z,1181.2
2022-10-18T14:41:10.177Z,1180
2022-10-18T14:42:53.921Z,1184.4
2022-10-18T14:44:37.579Z,1184.8
2022-10-18T14:46:21.286Z,1188.7
2022-10-18T14:48:04.983Z,1187.8
2022-10-18T14:49:48.697Z,1187.5
2022-10-18T14:51:32.391Z,1188.7
2022-10-18T14:53:16.096Z,1188.8
2022-10-18T14:54:59.808Z,1190.8
2022-10-18T14:56:43.525Z,1190
2022-10-18T14:58:27.203Z,1189.3
2022-10-18T15:00:10.908Z,1187.9
2022-10-18T15:01:54.609Z,1187.9
2022-10-18T15:03:38.347Z,1186.8
2022-10-18T15:05:22.009Z,1188.1
2022-10-18T15:07:05.706Z,1184.3
2022-10-18T15:08:49.429Z,1182
2022-10-18T15:10:33.106Z,1181.6
2022-10-18T15:12:16.813Z,1181.5
2022-10-18T15:14:00.520Z,1181.5
2022-10-18T15:15:44.225Z,1177.7
2022-10-18T15:17:27.940Z,1137.1
2022-10-18T15:19:11.616Z,1079.8
2022-10-18T15:20:55.339Z,975.5
2022-10-18T15:22:39.034Z,886.8
2022-10-18T15:24:22.721Z,852.4
2022-10-18T15:26:06.427Z,742.4
2022-10-18T15:27:50.131Z,727.1
2022-10-18T15:29:33.843Z,782.1
2022-10-18T15:31:17.532Z,825.9
2022-10-18T15:33:01.244Z,926.5
2022-10-18T15:34:44.937Z,1066.2
2022-10-18T15:36:28.775Z,1113.8
2022-10-18T15:38:12.342Z,1126.1
2022-10-18T15:39:56.066Z,1125.9
2022-10-18T15:41:39.755Z,1105.8
2022-10-18T15:43:23.446Z,1073.4
2022-10-18T15:45:07.151Z,1045.3
2022-10-18T15:46:50.866Z,989
2022-10-18T15:48:34.556Z,962.4
2022-10-18T15:50:18.288Z,949.6
2022-10-18T15:52:01.977Z,888.3
2022-10-18T15:53:45.670Z,886.1
2022-10-18T15:55:29.365Z,882.4
2022-10-18T15:57:13.067Z,874.3
2022-10-18T15:58:56.770Z,865.1
2022-10-18T16:00:40.479Z,868.6
2022-10-18T16:02:24.172Z,883.2
2022-10-18T16:04:07.879Z,877.1
2022-10-18T16:05:51.574Z,869.4
2022-10-18T16:07:35.277Z,879.2
2022-10-18T16:09:18.987Z,890.9
2022-10-18T16:11:02.676Z,897.7
2022-10-18T16:12:46.460Z,903.7
2022-10-18T16:14:30.090Z,902.5
2022-10-18T16:16:13.831Z,901.7
2022-10-18T16:17:57.492Z,904.2
2022-10-18T16:19:41.194Z,903.9
2022-10-18T16:21:24.898Z,903.9
2022-10-18T16:23:08.604Z,907.4
2022-10-18T16:24:52.324Z,908.5
2022-10-18T16:26:36.006Z,912.5
2022-10-18T16:28:19.712Z,918.4
2022-10-18T16:30:03.404Z,920.2
2022-10-18T16:31:47.109Z,923
2022-10-18T16:33:30.816Z,926.1
2022-10-18T16:35:14.514Z,924
2022-10-18T16:36:58.325Z,924.1
2022-10-18T16:38:41.918Z,924.4
2022-10-18T16:40:25.624Z,926.7
2022-10-18T16:42:09.416Z,927.7
2022-10-18T16:43:53.036Z,929.1
2022-10-18T16:45:36.728Z,930.2
2022-10-18T16:47:20.504Z,932.8
2022-10-18T16:49:04.273Z,936.5
2022-10-18T16:50:47.839Z,944.3
2022-10-18T16:52:31.541Z,945.3
2022-10-18T16:54:15.274Z,946.7
2022-10-18T16:55:58.980Z,949.2
2022-10-18T16:57:42.648Z,959.3
2022-10-18T16:59:26.530Z,964
2022-10-18T17:01:10.058Z,965.9
2022-10-18T17:02:53.792Z,966.1
2022-10-18T17:04:37.465Z,969.2
2022-10-18T17:06:21.164Z,973.4
2022-10-18T17:08:04.861Z,974
2022-10-18T17:09:48.572Z,973
2022-10-18T17:11:32.265Z,968.1
2022-10-18T17:13:15.971Z,962.4
2022-10-18T17:14:59.675Z,959.6
2022-10-18T17:16:43.373Z,959.7
2022-10-18T17:18:27.076Z,960.3
2022-10-18T17:20:10.866Z,969.2
2022-10-18T17:21:54.485Z,968.6
2022-10-18T17:23:38.186Z,968.6
2022-10-18T17:25:21.949Z,969
2022-10-18T17:27:05.674Z,967.4
2022-10-18T17:28:49.298Z,966.4
2022-10-18T17:30:32.990Z,965.2
2022-10-18T17:32:16.693Z,963.8
2022-10-18T17:34:00.399Z,962.5
2022-10-18T17:35:44.118Z,959.8
2022-10-18T17:37:27.816Z,959.7
2022-10-18T17:39:11.503Z,961.5
2022-10-18T17:40:55.214Z,961.5
2022-10-18T17:42:38.915Z,963.5
2022-10-18T17:44:22.613Z,969.3
2022-10-18T17:46:06.356Z,969.3
2022-10-18T17:47:50.018Z,964.5
2022-10-18T17:49:33.720Z,958.6
2022-10-18T17:51:17.420Z,958.3
2022-10-18T17:53:01.184Z,958.9
2022-10-18T17:54:44.846Z,964.9
2022-10-18T17:56:28.523Z,1009.6
2022-10-18T17:58:12.218Z,1007.7
2022-10-18T17:59:55.926Z,1005.9
2022-10-18T18:01:39.715Z,1003.9
2022-10-18T18:03:23.332Z,1002.8
2022-10-18T18:05:07.035Z,1001.7
2022-10-18T18:06:50.750Z,1001.7
2022-10-18T18:08:34.439Z,996.8
2022-10-18T18:10:18.141Z,993.2
2022-10-18T18:12:01.841Z,991.4
2022-10-18T18:13:45.541Z,972.8
2022-10-18T18:15:29.241Z,967.8
2022-10-18T18:17:12.964Z,966.1
2022-10-18T18:18:56.655Z,969.2
2022-10-18T18:20:40.359Z,966.4
2022-10-18T18:22:24.057Z,968.9
2022-10-18T18:24:07.762Z,971.3
2022-10-18T18:25:51.469Z,971.8
2022-10-18T18:27:35.169Z,975.3
2022-10-18T18:29:18.901Z,973
2022-10-18T18:31:02.571Z,963.8
2022-10-18T18:32:46.283Z,963.7
2022-10-18T18:34:29.970Z,960
2022-10-18T18:36:13.676Z,961.3
2022-10-18T18:37:57.400Z,957.3
2022-10-18T18:39:41.116Z,952.3
2022-10-18T18:41:24.779Z,952.7
2022-10-18T18:43:08.490Z,950.2
2022-10-18T18:44:52.188Z,948.8
2022-10-18T18:46:35.893Z,945.8
2022-10-18T18:48:19.586Z,940.5
2022-10-18T18:50:03.305Z,936.9
2022-10-18T18:51:47.018Z,933
2022-10-18T18:53:30.699Z,931.3
2022-10-18T18:55:14.405Z,930.7
2022-10-18T18:56:58.099Z,931.1
2022-10-18T18:58:41.806Z,931.8
2022-10-18T19:00:25.514Z,928.9
2022-10-18T19:02:09.209Z,928.3
2022-10-18T19:03:52.917Z,930.3
2022-10-18T19:05:36.613Z,929.9
2022-10-18T19:07:20.320Z,923.7
2022-10-18T19:09:04.029Z,922.5
2022-10-18T19:10:47.724Z,922.9
2022-10-18T19:12:31.427Z,920
2022-10-18T19:14:15.144Z,907.9
2022-10-18T19:15:58.832Z,883.6
2022-10-18T19:17:42.541Z,870.1
2022-10-18T19:19:26.230Z,864.9
2022-10-18T19:21:09.936Z,862.6
2022-10-18T19:22:53.640Z,870
2022-10-18T19:24:37.332Z,880.2
2022-10-18T19:26:21.041Z,888.8
2022-10-18T19:28:04.746Z,889.4
2022-10-18T19:29:48.448Z,890.6
2022-10-18T19:31:32.155Z,901.1
2022-10-18T19:33:15.855Z,915.3
2022-10-18T19:34:59.558Z,956.4
2022-10-18T19:36:43.269Z,992.3
2022-10-18T19:38:26.962Z,994
2022-10-18T19:40:10.679Z,1001.2
2022-10-18T19:41:54.393Z,1002.3
2022-10-18T19:43:38.076Z,1003.7
2022-10-18T19:45:21.802Z,1006.3
2022-10-18T19:47:05.536Z,1007.9
2022-10-18T19:48:49.182Z,1006.5
2022-10-18T19:50:32.892Z,1011.5
2022-10-18T19:52:16.641Z,1019.3
2022-10-18T19:54:00.330Z,1026.2
2022-10-18T19:55:44.078Z,1032
2022-10-18T19:57:27.782Z,1032.4
2022-10-18T19:59:11.451Z,1035.5
2022-10-18T20:00:55.131Z,1030.4
2022-10-18T20:02:38.901Z,1026.6
2022-10-18T20:04:22.538Z,1021.4
2022-10-18T20:06:06.200Z,1018.4
2022-10-18T20:07:50.016Z,1020.1
2022-10-18T20:09:33.663Z,1025.3
2022-10-18T20:11:17.347Z,1036.9
2022-10-18T20:13:01.030Z,1046
2022-10-18T20:14:44.712Z,1045
2022-10-18T20:16:28.432Z,1038.4
2022-10-18T20:18:12.118Z,1024.2
2022-10-18T20:19:55.838Z,1029
2022-10-18T20:21:39.568Z,1031.5
2022-10-18T20:23:23.268Z,1037.7
2022-10-18T20:25:06.926Z,1040.4
2022-10-18T20:26:50.629Z,1044.6
2022-10-18T20:28:34.337Z,1044.8
2022-10-18T20:30:18.101Z,1038.4
2022-10-18T20:32:01.811Z,1037.3
2022-10-18T20:33:45.432Z,1034.6
2022-10-18T20:35:29.150Z,1033.6
2022-10-18T20:37:12.837Z,1037.1
2022-10-18T20:38:56.541Z,1038.5
2022-10-18T20:40:40.315Z,1038.4
2022-10-18T20:42:23.956Z,1036.7
2022-10-18T20:44:07.656Z,1035.7
2022-10-18T20:45:51.376Z,1034.2
2022-10-18T20:47:35.134Z,1029.6
2022-10-18T20:49:18.821Z,1028.9
2022-10-18T20:51:02.465Z,1029.9
2022-10-18T20:52:46.232Z,1026.9
2022-10-18T20:54:29.874Z,1026.2
2022-10-18T20:56:13.570Z,1026.2
2022-10-18T20:57:57.288Z,1029.8
2022-10-18T20:59:41.006Z,1040.4
2022-10-18T21:01:24.735Z,1051.1
2022-10-18T21:03:08.395Z,1063.7
2022-10-18T21:04:52.112Z,1066.8
2022-10-18T21:06:35.780Z,1068.9
2022-10-18T21:08:19.480Z,1066.1
2022-10-18T21:10:03.220Z,1064.5
2022-10-18T21:11:46.978Z,1064
2022-10-18T21:13:30.586Z,1063.7
2022-10-18T21:15:14.308Z,1056.9
2022-10-18T21:16:57.994Z,1069.1
2022-10-18T21:18:41.691Z,1120.2
2022-10-18T21:20:25.395Z,1127
2022-10-18T21:22:09.154Z,1124.4
2022-10-18T21:23:52.813Z,1111
2022-10-18T21:25:36.508Z,1101.8
2022-10-18T21:27:20.310Z,1094.2
2022-10-18T21:29:03.922Z,1086
2022-10-18T21:30:47.608Z,1073.9
2022-10-18T21:32:31.311Z,1068.5
2022-10-18T21:34:15.029Z,1066.7
2022-10-18T21:35:58.721Z,1062.8
2022-10-18T21:37:42.429Z,1060
2022-10-18T21:39:26.121Z,1055.1
2022-10-18T21:41:09.857Z,1045.5
2022-10-18T21:42:53.576Z,1050.1
2022-10-18T21:44:37.221Z,1050.7
2022-10-18T21:46:20.929Z,1049.4
2022-10-18T21:48:04.707Z,1049.4
2022-10-18T21:49:48.401Z,1047.3
2022-10-18T21:51:32.042Z,1047.7
2022-10-18T21:53:15.746Z,1047.2
2022-10-18T21:54:59.451Z,1045.3
2022-10-18T21:56:43.153Z,1041.9
2022-10-18T21:58:26.872Z,1037.6
2022-10-18T22:00:10.621Z,1034.3
2022-10-18T22:01:54.320Z,1031.6
2022-10-18T22:03:37.975Z,1028.3
2022-10-18T22:05:21.670Z,1031.9
2022-10-18T22:07:05.375Z,1028.2